Aérodrome :
LOGIN :

S'inscrire | Disclaimer

   EN    FR    IT 

 










Légende :    VFR   VFR Marginal   IFR   IFR Intensif   IFR Très Intensif
Visi : 
Plafond : 
>= 8 km
>= 3000ft
5 à 8 km
1000 à 3000 ft
1500m à 5 km
500 à 1000 ft
800 à 1500m
200 à 500 ft
< 800m
< 200 ft
Symboles :   Orages  Brouillard  Fortes neiges  Fortes précipitations  Vent > 20 kt
SIGMETs :   Divers  Orages  Givrage  Turbulence  Onde Orograph.  Cendres Volcan.






- Altitude de l'aérodrome : 18 ft


LIPC - Cervia AFB Ravenna

DERNIER METAR :
  • 072055Z 26003KT 3000 BR SCT040 05/03 Q1020 RMK SCT VIS MIN 3000 WIND THR11 /////KT WIND THR29 27002KT YLO

METARs EXPIRÉS :
  • 071955Z 24002KT 5000 BR SCT040 05/03 Q1020
  • 071855Z VRB01KT 9999 FEW040 SCT060 05/03 Q1020
  • 071755Z 09002KT CAVOK 05/04 Q1019 RMK FEW FEW200 VIS MIN 9999 WIND THR11 ///// KT WIND THR29 08002KT BLU

TAF TAF LIPC
Valide du 07 à 21h jusqu'au 08 à 06h UTC


072000Z 0721/0806 29004KT 6000 NSC
TEMPO 0721/0806 1500 BR BKN010



MET'MAP, la Météo Aéronautique d'un coup d'oeil ! - Copyright ORBIFLY Décembre 2007 - Disclaimer

ORBIFLY MET'MAP TEAM :

Programmation & Développement : Alexandra Zaïnal
Sur une idée originale de : Baudouin d'Aumeries
Assistance à la programmation : Marc-Olivier Méhu
Soutien technique & logistique : Manuel Goepfert

Contact : metmap@orbifly.com




SOURCES & CREDITS :

   NOAA